createdAt,value
2018-08-04T00:00:25.437Z,0.00
2018-08-04T00:01:25.458Z,0.00
2018-08-04T00:02:25.424Z,0.00
2018-08-04T00:03:25.406Z,0.00
2018-08-04T00:04:25.394Z,0.00
2018-08-04T00:05:25.384Z,0.00
2018-08-04T00:06:25.395Z,0.00
2018-08-04T00:07:25.361Z,0.00
2018-08-04T00:08:25.347Z,0.00
2018-08-04T00:09:25.353Z,0.00
2018-08-04T00:10:25.326Z,0.00
2018-08-04T00:11:25.334Z,0.00
2018-08-04T00:12:25.304Z,0.00
2018-08-04T00:13:25.292Z,0.00
2018-08-04T00:14:25.299Z,0.00
2018-08-04T00:15:25.271Z,0.00
2018-08-04T00:16:25.278Z,0.00
2018-08-04T00:17:25.245Z,0.00
2018-08-04T00:18:25.232Z,0.00
2018-08-04T00:19:25.221Z,0.00
2018-08-04T00:20:25.211Z,0.00
2018-08-04T00:21:25.219Z,0.00
2018-08-04T00:22:25.187Z,0.00
2018-08-04T00:23:25.174Z,0.00
2018-08-04T00:24:25.159Z,0.00
2018-08-04T00:25:25.150Z,0.00
2018-08-04T00:26:25.169Z,0.00
2018-08-04T00:27:25.126Z,0.00
2018-08-04T00:28:25.122Z,0.00
2018-08-04T00:29:25.100Z,0.00
2018-08-04T00:30:25.091Z,0.00
2018-08-04T00:31:25.102Z,0.00
2018-08-04T00:32:25.070Z,0.00
2018-08-04T00:33:25.056Z,0.00
2018-08-04T00:34:25.047Z,0.00
2018-08-04T00:35:25.033Z,0.00
2018-08-04T00:36:25.047Z,0.00
2018-08-04T00:37:25.018Z,0.00
2018-08-04T00:38:25.000Z,0.00
2018-08-04T00:39:24.992Z,0.00
2018-08-04T00:40:24.981Z,0.00
2018-08-04T00:41:24.991Z,0.00
2018-08-04T00:42:24.964Z,0.00
2018-08-04T00:43:24.938Z,0.00
2018-08-04T00:44:24.924Z,0.00
2018-08-04T00:45:24.923Z,0.00
2018-08-04T00:46:24.957Z,0.00
2018-08-04T00:47:24.897Z,0.00
2018-08-04T00:48:24.882Z,0.00
2018-08-04T00:49:24.881Z,0.00
2018-08-04T00:50:24.865Z,0.00
2018-08-04T00:51:24.870Z,0.00
2018-08-04T00:52:24.840Z,0.00
2018-08-04T00:53:24.827Z,0.00
2018-08-04T00:54:24.811Z,0.00
2018-08-04T00:55:24.809Z,0.00
2018-08-04T00:56:24.815Z,0.00
2018-08-04T00:57:24.784Z,0.00
2018-08-04T00:58:24.765Z,0.00
2018-08-04T00:59:24.763Z,0.00
2018-08-04T01:00:24.752Z,0.00
2018-08-04T01:01:24.753Z,0.00
2018-08-04T01:02:24.728Z,0.00
2018-08-04T01:03:24.707Z,0.00
2018-08-04T01:04:24.701Z,0.00
2018-08-04T01:05:24.685Z,0.00
2018-08-04T01:06:24.857Z,0.00
2018-08-04T01:07:24.664Z,0.00
2018-08-04T01:08:24.651Z,0.00
2018-08-04T01:09:24.644Z,0.00
2018-08-04T01:10:24.628Z,0.00
2018-08-04T01:11:24.644Z,0.00
2018-08-04T01:12:24.603Z,0.00
2018-08-04T01:13:24.597Z,0.00
2018-08-04T01:14:24.584Z,0.00
2018-08-04T01:15:24.572Z,0.00
2018-08-04T01:16:24.589Z,0.00
2018-08-04T01:17:24.552Z,0.00
2018-08-04T01:18:24.541Z,0.00
2018-08-04T01:19:24.524Z,0.00
2018-08-04T01:20:24.519Z,0.00
2018-08-04T01:21:24.529Z,0.00
2018-08-04T01:22:24.492Z,0.00
2018-08-04T01:23:24.481Z,0.00
2018-08-04T01:24:24.461Z,0.00
2018-08-04T01:25:24.461Z,0.00
2018-08-04T01:26:24.520Z,0.00
2018-08-04T01:27:24.432Z,0.00
2018-08-04T01:28:24.419Z,0.00
2018-08-04T01:29:24.408Z,0.00
2018-08-04T01:30:24.412Z,0.00
2018-08-04T01:31:24.408Z,0.00
2018-08-04T01:32:24.379Z,0.00
2018-08-04T01:33:24.359Z,0.00
2018-08-04T01:34:24.349Z,0.00
2018-08-04T01:35:24.335Z,0.00
2018-08-04T01:36:24.349Z,0.00
2018-08-04T01:37:24.321Z,0.00
2018-08-04T01:38:24.300Z,0.00
2018-08-04T01:39:24.299Z,0.00
2018-08-04T01:40:24.291Z,0.00
2018-08-04T01:41:24.299Z,0.00
2018-08-04T01:42:24.264Z,0.00
2018-08-04T01:43:24.245Z,0.00
2018-08-04T01:44:24.243Z,0.00
2018-08-04T01:45:24.228Z,0.00
2018-08-04T01:46:24.243Z,0.00
2018-08-04T01:47:24.199Z,0.00
2018-08-04T01:48:24.186Z,0.00
2018-08-04T01:49:24.188Z,0.00
2018-08-04T01:50:24.166Z,0.00
2018-08-04T01:51:24.178Z,0.00
2018-08-04T01:52:24.145Z,0.00
2018-08-04T01:53:24.136Z,0.00
2018-08-04T01:54:24.120Z,0.00
2018-08-04T01:55:24.113Z,0.00
2018-08-04T01:56:24.126Z,0.00
2018-08-04T01:57:24.088Z,0.00
2018-08-04T01:58:24.080Z,0.00
2018-08-04T01:59:24.065Z,0.00
2018-08-04T02:00:24.050Z,0.00
2018-08-04T02:01:24.071Z,0.00
2018-08-04T02:02:24.027Z,0.00
2018-08-04T02:03:24.029Z,0.00
2018-08-04T02:04:24.015Z,0.00
2018-08-04T02:05:23.995Z,0.00
2018-08-04T02:06:24.019Z,0.00
2018-08-04T02:07:24.105Z,0.00
2018-08-04T02:08:23.962Z,0.00
2018-08-04T02:09:23.959Z,0.00
2018-08-04T02:10:23.936Z,0.00
2018-08-04T02:11:23.957Z,0.00
2018-08-04T02:12:23.923Z,0.00
2018-08-04T02:13:23.904Z,0.00
2018-08-04T02:14:23.906Z,0.00
2018-08-04T02:15:23.880Z,0.00
2018-08-04T02:16:23.895Z,0.00
2018-08-04T02:17:23.864Z,0.00
2018-08-04T02:18:23.849Z,0.00
2018-08-04T02:19:23.842Z,0.00
2018-08-04T02:20:23.830Z,0.00
2018-08-04T02:21:23.838Z,0.00
2018-08-04T02:22:23.806Z,0.00
2018-08-04T02:23:23.794Z,0.00
2018-08-04T02:24:23.785Z,0.00
2018-08-04T02:25:23.769Z,0.00
2018-08-04T02:26:23.784Z,0.00
2018-08-04T02:27:23.754Z,0.00
2018-08-04T02:28:23.734Z,0.00
2018-08-04T02:29:23.721Z,0.00
2018-08-04T02:30:23.720Z,0.00
2018-08-04T02:31:23.722Z,0.00
2018-08-04T02:32:23.689Z,0.00
2018-08-04T02:33:23.681Z,0.00
2018-08-04T02:34:23.666Z,0.00
2018-08-04T02:35:23.658Z,0.00
2018-08-04T02:36:23.670Z,0.00
2018-08-04T02:37:23.635Z,0.00
2018-08-04T02:38:23.624Z,0.00
2018-08-04T02:39:23.615Z,0.00
2018-08-04T02:40:23.599Z,0.00
2018-08-04T02:41:23.613Z,0.00
2018-08-04T02:42:23.575Z,0.00
2018-08-04T02:43:23.562Z,0.00
2018-08-04T02:44:23.556Z,0.00
2018-08-04T02:45:23.548Z,0.00
2018-08-04T02:46:23.554Z,0.00
2018-08-04T02:47:23.524Z,0.00
2018-08-04T02:48:23.511Z,0.00
2018-08-04T02:49:23.497Z,0.00
2018-08-04T02:50:23.487Z,0.00
2018-08-04T02:51:23.497Z,0.00
2018-08-04T02:52:23.463Z,0.00
2018-08-04T02:53:23.453Z,0.00
2018-08-04T02:54:23.441Z,0.00
2018-08-04T02:55:23.434Z,0.00
2018-08-04T02:56:23.444Z,0.00
2018-08-04T02:57:23.405Z,0.00
2018-08-04T02:58:23.391Z,0.00
2018-08-04T02:59:23.383Z,0.00
2018-08-04T03:00:23.372Z,0.00
2018-08-04T03:01:23.382Z,0.00
2018-08-04T03:02:23.349Z,0.00
2018-08-04T03:03:23.346Z,0.00
2018-08-04T03:04:23.326Z,0.00
2018-08-04T03:05:23.324Z,0.00
2018-08-04T03:06:23.346Z,0.00
2018-08-04T03:07:23.289Z,0.00
2018-08-04T03:08:23.338Z,0.00
2018-08-04T03:09:23.269Z,0.00
2018-08-04T03:10:23.256Z,0.00
2018-08-04T03:11:23.252Z,0.00
2018-08-04T03:12:23.276Z,0.00
2018-08-04T03:13:23.219Z,0.00
2018-08-04T03:14:23.211Z,0.00
2018-08-04T03:15:23.205Z,0.00
2018-08-04T03:16:23.185Z,0.00
2018-08-04T03:17:23.180Z,0.00
2018-08-04T03:18:23.190Z,0.00
2018-08-04T03:19:23.159Z,0.00
2018-08-04T03:20:23.141Z,4.00
2018-08-04T03:21:23.136Z,4.00
2018-08-04T03:22:23.144Z,0.00
2018-08-04T03:23:23.141Z,0.00
2018-08-04T03:24:23.102Z,4.00
2018-08-04T03:25:23.086Z,4.00
2018-08-04T03:26:23.071Z,4.00
2018-08-04T03:27:23.062Z,8.00
2018-08-04T03:28:23.046Z,4.00
2018-08-04T03:29:23.077Z,4.00
2018-08-04T03:30:23.036Z,8.00
2018-08-04T03:31:23.021Z,12.00
2018-08-04T03:32:23.011Z,12.00
2018-08-04T03:33:22.989Z,16.00
2018-08-04T03:34:22.979Z,16.00
2018-08-04T03:35:22.987Z,20.00
2018-08-04T03:36:22.962Z,20.00
2018-08-04T03:37:22.954Z,24.00
2018-08-04T03:38:22.930Z,28.00
2018-08-04T03:39:22.924Z,32.00
2018-08-04T03:40:22.937Z,40.00
2018-08-04T03:41:22.903Z,44.00
2018-08-04T03:42:22.890Z,48.00
2018-08-04T03:43:22.876Z,56.00
2018-08-04T03:44:22.862Z,60.00
2018-08-04T03:45:22.847Z,72.00
2018-08-04T03:46:22.872Z,76.00
2018-08-04T03:47:22.831Z,88.00
2018-08-04T03:48:22.827Z,96.00
2018-08-04T03:49:22.804Z,112.00
2018-08-04T03:50:22.794Z,124.00
2018-08-04T03:51:22.785Z,140.00
2018-08-04T03:52:22.801Z,152.00
2018-08-04T03:53:22.766Z,168.00
2018-08-04T03:54:22.741Z,188.00
2018-08-04T03:55:22.738Z,208.00
2018-08-04T03:56:22.727Z,228.00
2018-08-04T03:57:22.706Z,252.00
2018-08-04T03:58:22.738Z,272.00
2018-08-04T03:59:22.683Z,300.00
2018-08-04T04:00:22.672Z,328.00
2018-08-04T04:01:22.671Z,360.00
2018-08-04T04:02:22.649Z,388.00
2018-08-04T04:03:22.641Z,420.00
2018-08-04T04:04:22.661Z,452.00
2018-08-04T04:05:22.615Z,484.00
2018-08-04T04:06:22.606Z,516.00
2018-08-04T04:07:22.595Z,556.00
2018-08-04T04:08:22.581Z,592.00
2018-08-04T04:09:22.573Z,632.00
2018-08-04T04:10:22.590Z,676.00
2018-08-04T04:11:22.555Z,728.00
2018-08-04T04:12:22.535Z,792.00
2018-08-04T04:13:22.527Z,872.00
2018-08-04T04:14:22.515Z,956.00
2018-08-04T04:15:22.501Z,1040.00
2018-08-04T04:16:22.521Z,1112.00
2018-08-04T04:17:22.479Z,1196.00
2018-08-04T04:18:22.463Z,1276.00
2018-08-04T04:19:22.454Z,1348.00
2018-08-04T04:20:22.443Z,1424.00
2018-08-04T04:21:22.429Z,1504.00
2018-08-04T04:22:22.445Z,1588.00
2018-08-04T04:23:22.413Z,1668.00
2018-08-04T04:24:22.424Z,1728.00
2018-08-04T04:25:22.383Z,1772.00
2018-08-04T04:26:22.370Z,1828.00
2018-08-04T04:27:22.369Z,1904.00
2018-08-04T04:28:22.383Z,1976.00
2018-08-04T04:29:22.341Z,2044.00
2018-08-04T04:30:22.333Z,2092.00
2018-08-04T04:31:22.313Z,2132.00
2018-08-04T04:32:22.305Z,2148.00
2018-08-04T04:33:22.299Z,2164.00
2018-08-04T04:34:22.319Z,2176.00
2018-08-04T04:35:22.275Z,2168.00
2018-08-04T04:36:22.265Z,2132.00
2018-08-04T04:37:22.246Z,2080.00
2018-08-04T04:38:22.244Z,2024.00
2018-08-04T04:39:22.222Z,1976.00
2018-08-04T04:40:22.246Z,1940.00
2018-08-04T04:41:22.207Z,1920.00
2018-08-04T04:42:22.191Z,1916.00
2018-08-04T04:43:22.182Z,1932.00
2018-08-04T04:44:22.172Z,1956.00
2018-08-04T04:45:22.158Z,2004.00
2018-08-04T04:46:22.183Z,2072.00
2018-08-04T04:47:22.133Z,2168.00
2018-08-04T04:48:22.133Z,2272.00
2018-08-04T04:49:22.116Z,2360.00
2018-08-04T04:50:22.101Z,2428.00
2018-08-04T04:51:22.091Z,2568.00
2018-08-04T04:52:22.108Z,2712.00
2018-08-04T04:53:22.068Z,2820.00
2018-08-04T04:54:22.057Z,2936.00
2018-08-04T04:55:22.101Z,2992.00
2018-08-04T04:56:22.065Z,3012.00
2018-08-04T04:57:22.029Z,3052.00
2018-08-04T04:58:22.007Z,3040.00
2018-08-04T04:59:22.004Z,3080.00
2018-08-04T05:00:21.992Z,3124.00
2018-08-04T05:01:21.972Z,3276.00
2018-08-04T05:02:22.006Z,3396.00
2018-08-04T05:03:21.950Z,3544.00
2018-08-04T05:04:21.946Z,3756.00
2018-08-04T05:05:21.929Z,3956.00
2018-08-04T05:06:21.923Z,4164.00
2018-08-04T05:07:21.914Z,4328.00
2018-08-04T05:08:21.929Z,4504.00
2018-08-04T05:09:21.893Z,4648.00
2018-08-04T05:10:21.888Z,4696.00
2018-08-04T05:11:21.860Z,4748.00
2018-08-04T05:12:21.858Z,4776.00
2018-08-04T05:13:21.894Z,4800.00
2018-08-04T05:14:21.829Z,4788.00
2018-08-04T05:15:21.823Z,4756.00
2018-08-04T05:16:21.803Z,4724.00
2018-08-04T05:17:21.800Z,4668.00
2018-08-04T05:18:21.788Z,4640.00
2018-08-04T05:19:21.803Z,4560.00
2018-08-04T05:20:21.761Z,4476.00
2018-08-04T05:21:21.755Z,4384.00
2018-08-04T05:22:21.743Z,4276.00
2018-08-04T05:23:21.729Z,4140.00
2018-08-04T05:24:21.726Z,4052.00
2018-08-04T05:25:21.736Z,4060.00
2018-08-04T05:26:21.696Z,4152.00
2018-08-04T05:27:21.682Z,4316.00
2018-08-04T05:28:21.670Z,4568.00
2018-08-04T05:29:21.664Z,4928.00
2018-08-04T05:30:21.642Z,5304.00
2018-08-04T05:31:21.670Z,5764.00
2018-08-04T05:32:21.668Z,6048.00
2018-08-04T05:33:21.609Z,6248.00
2018-08-04T05:34:21.605Z,6428.00
2018-08-04T05:35:21.586Z,6636.00
2018-08-04T05:36:21.574Z,6844.00
2018-08-04T05:37:21.609Z,6936.00
2018-08-04T05:38:21.550Z,7076.00
2018-08-04T05:39:21.546Z,7312.00
2018-08-04T05:40:21.536Z,7600.00
2018-08-04T05:41:21.516Z,7804.00
2018-08-04T05:42:21.513Z,8152.00
2018-08-04T05:43:21.569Z,8580.00
2018-08-04T05:44:21.486Z,8728.00
2018-08-04T05:45:21.480Z,8564.00
2018-08-04T05:46:21.468Z,8180.00
2018-08-04T05:47:21.446Z,7804.00
2018-08-04T05:48:21.440Z,7468.00
2018-08-04T05:49:21.606Z,7216.00
2018-08-04T05:50:21.411Z,7112.00
2018-08-04T05:51:21.456Z,7120.00
2018-08-04T05:52:21.392Z,7252.00
2018-08-04T05:53:21.384Z,7456.00
2018-08-04T05:54:21.407Z,7692.00
2018-08-04T05:55:21.385Z,7920.00
2018-08-04T05:56:21.347Z,8044.00
2018-08-04T05:57:21.390Z,8116.00
2018-08-04T05:58:21.353Z,8160.00
2018-08-04T05:59:21.346Z,8268.00
2018-08-04T06:00:21.301Z,8420.00
2018-08-04T06:01:21.390Z,8392.00
2018-08-04T06:02:21.281Z,8344.00
2018-08-04T06:03:21.329Z,8416.00
2018-08-04T06:04:21.251Z,8428.00
2018-08-04T06:05:21.279Z,8512.00
2018-08-04T06:06:21.276Z,8800.00
2018-08-04T06:07:21.222Z,9004.00
2018-08-04T06:08:21.276Z,9084.00
2018-08-04T06:09:21.197Z,9224.00
2018-08-04T06:10:21.255Z,9260.00
2018-08-04T06:11:21.209Z,9236.00
2018-08-04T06:12:21.165Z,9472.00
2018-08-04T06:13:21.153Z,9664.00
2018-08-04T06:14:21.143Z,9772.00
2018-08-04T06:15:21.176Z,9736.00
2018-08-04T06:16:21.116Z,9780.00
2018-08-04T06:17:21.155Z,9928.00
2018-08-04T06:18:21.094Z,10024.00
2018-08-04T06:19:22.073Z,10232.00
2018-08-04T06:20:21.230Z,10344.00
2018-08-04T06:21:21.107Z,10420.00
2018-08-04T06:22:21.233Z,10540.00
2018-08-04T06:23:21.063Z,10632.00
2018-08-04T06:24:21.025Z,10748.00
2018-08-04T06:25:21.271Z,10976.00
2018-08-04T06:26:21.010Z,11228.00
2018-08-04T06:27:21.037Z,11488.00
2018-08-04T06:28:21.058Z,11924.00
2018-08-04T06:29:20.969Z,12544.00
2018-08-04T06:30:21.025Z,12408.00
2018-08-04T06:31:21.033Z,13832.00
2018-08-04T06:32:20.941Z,15960.00
2018-08-04T06:33:20.960Z,21952.00
2018-08-04T06:34:20.917Z,20640.00
2018-08-04T06:35:20.904Z,19680.00
2018-08-04T06:36:20.892Z,16224.00
2018-08-04T06:37:20.884Z,17696.00
2018-08-04T06:38:20.958Z,15452.00
2018-08-04T06:39:20.893Z,17952.00
2018-08-04T06:40:20.908Z,21728.00
2018-08-04T06:41:20.838Z,21952.00
2018-08-04T06:42:20.856Z,17536.00
2018-08-04T06:43:20.816Z,18784.00
2018-08-04T06:44:20.797Z,16352.00
2018-08-04T06:45:20.811Z,16864.00
2018-08-04T06:46:20.780Z,18752.00
2018-08-04T06:47:20.772Z,19488.00
2018-08-04T06:48:20.755Z,20128.00
2018-08-04T06:49:20.747Z,20864.00
2018-08-04T06:50:20.760Z,22944.00
2018-08-04T06:51:20.724Z,21376.00
2018-08-04T06:52:20.714Z,21824.00
2018-08-04T06:53:20.696Z,30240.00
2018-08-04T06:54:20.693Z,31552.00
2018-08-04T06:55:20.675Z,28256.00
2018-08-04T06:56:20.698Z,28352.00
2018-08-04T06:57:20.657Z,29856.00
2018-08-04T06:58:20.688Z,30400.00
2018-08-04T06:59:20.636Z,26496.00
2018-08-04T07:00:20.616Z,25920.00
2018-08-04T07:01:20.611Z,22944.00
2018-08-04T07:02:20.636Z,27136.00
2018-08-04T07:03:20.589Z,27744.00
2018-08-04T07:04:20.580Z,24448.00
2018-08-04T07:05:20.559Z,27488.00
2018-08-04T07:06:20.552Z,25952.00
2018-08-04T07:07:20.544Z,31680.00
2018-08-04T07:08:20.554Z,28032.00
2018-08-04T07:09:20.526Z,36160.00
2018-08-04T07:10:20.510Z,37856.00
2018-08-04T07:11:20.496Z,28960.00
2018-08-04T07:12:20.487Z,35552.00
2018-08-04T07:13:20.506Z,40608.00
2018-08-04T07:14:20.469Z,44480.00
2018-08-04T07:15:20.454Z,59488.00
2018-08-04T07:16:20.437Z,69120.00
2018-08-04T07:17:20.429Z,52672.00
2018-08-04T07:18:20.453Z,63200.00
2018-08-04T07:19:20.407Z,74656.00
2018-08-04T07:20:20.399Z,74336.00
2018-08-04T07:21:20.384Z,72512.00
2018-08-04T07:22:20.371Z,70400.00
2018-08-04T07:23:20.368Z,88384.00
2018-08-04T07:24:20.385Z,85216.00
2018-08-04T07:25:20.344Z,75744.00
2018-08-04T07:26:20.335Z,69312.00
2018-08-04T07:27:20.316Z,70880.00
2018-08-04T07:28:20.314Z,57728.00
2018-08-04T07:29:20.296Z,58048.00
2018-08-04T07:30:20.317Z,61440.00
2018-08-04T07:31:20.276Z,61760.00
2018-08-04T07:32:20.271Z,41504.00
2018-08-04T07:33:20.259Z,44064.00
2018-08-04T07:34:20.298Z,35552.00
2018-08-04T07:35:20.236Z,37120.00
2018-08-04T07:36:20.254Z,25920.00
2018-08-04T07:37:20.212Z,28800.00
2018-08-04T07:38:20.199Z,31616.00
2018-08-04T07:39:20.194Z,25696.00
2018-08-04T07:40:20.207Z,20384.00
2018-08-04T07:41:20.167Z,19200.00
2018-08-04T07:42:20.183Z,18208.00
2018-08-04T07:43:20.145Z,17920.00
2018-08-04T07:44:20.141Z,18016.00
2018-08-04T07:45:20.120Z,17280.00
2018-08-04T07:46:20.114Z,15372.00
2018-08-04T07:47:20.130Z,16084.00
2018-08-04T07:48:20.089Z,17728.00
2018-08-04T07:49:20.081Z,21536.00
2018-08-04T07:50:20.066Z,27392.00
2018-08-04T07:51:20.065Z,29408.00
2018-08-04T07:52:20.045Z,36288.00
2018-08-04T07:53:20.074Z,38816.00
2018-08-04T07:54:20.029Z,42752.00
2018-08-04T07:55:20.016Z,43328.00
2018-08-04T07:56:20.009Z,41312.00
2018-08-04T07:57:19.990Z,35680.00
2018-08-04T07:58:19.982Z,48640.00
2018-08-04T07:59:20.063Z,51648.00
2018-08-04T08:00:19.961Z,50080.00
2018-08-04T08:01:19.951Z,48960.00
2018-08-04T08:02:19.934Z,45856.00
2018-08-04T08:03:19.926Z,45344.00
2018-08-04T08:04:19.917Z,37312.00
2018-08-04T08:05:19.939Z,44896.00
2018-08-04T08:06:19.948Z,43328.00
2018-08-04T08:07:19.887Z,40352.00
2018-08-04T08:08:19.880Z,47008.00
2018-08-04T08:09:19.866Z,42976.00
2018-08-04T08:10:19.924Z,46336.00
2018-08-04T08:11:19.919Z,44448.00
2018-08-04T08:12:19.835Z,34688.00
2018-08-04T08:13:19.823Z,48512.00
2018-08-04T08:14:19.810Z,39680.00
2018-08-04T08:15:19.807Z,46432.00
2018-08-04T08:16:19.799Z,47040.00
2018-08-04T08:17:19.810Z,47168.00
2018-08-04T08:18:19.775Z,43392.00
2018-08-04T08:19:19.803Z,30656.00
2018-08-04T08:20:19.746Z,47584.00
2018-08-04T08:21:19.739Z,46176.00
2018-08-04T08:22:19.729Z,48288.00
2018-08-04T08:23:19.825Z,43840.00
2018-08-04T08:24:19.704Z,39968.00
2018-08-04T08:25:19.704Z,45056.00
2018-08-04T08:26:19.682Z,48192.00
2018-08-04T08:27:19.681Z,48032.00
2018-08-04T08:28:19.670Z,47424.00
2018-08-04T08:29:19.683Z,46784.00
2018-08-04T08:30:19.651Z,46560.00
2018-08-04T08:31:19.697Z,46048.00
2018-08-04T08:32:19.622Z,44992.00
2018-08-04T08:33:19.621Z,44608.00
2018-08-04T08:34:19.603Z,44512.00
2018-08-04T08:35:19.626Z,43840.00
2018-08-04T08:36:19.593Z,43520.00
2018-08-04T08:37:19.579Z,42912.00
2018-08-04T08:38:19.568Z,42496.00
2018-08-04T08:39:19.561Z,41920.00
2018-08-04T08:40:19.596Z,41504.00
2018-08-04T08:41:19.567Z,40832.00
2018-08-04T08:42:19.533Z,40480.00
2018-08-04T08:43:19.514Z,40128.00
2018-08-04T08:44:19.503Z,39648.00
2018-08-04T08:45:19.502Z,39104.00
2018-08-04T08:46:19.484Z,38400.00
2018-08-04T08:47:19.585Z,38304.00
2018-08-04T08:48:19.474Z,37760.00
2018-08-04T08:49:19.455Z,37408.00
2018-08-04T08:50:19.458Z,36768.00
2018-08-04T08:51:19.435Z,36704.00
2018-08-04T08:52:19.431Z,36000.00
2018-08-04T08:53:19.606Z,35808.00
2018-08-04T08:54:19.407Z,35520.00
2018-08-04T08:55:19.401Z,35040.00
2018-08-04T08:56:19.392Z,34848.00
2018-08-04T08:57:19.387Z,34624.00
2018-08-04T08:58:19.368Z,34336.00
2018-08-04T08:59:19.394Z,33536.00
2018-08-04T09:00:19.359Z,33472.00
2018-08-04T09:01:19.389Z,33344.00
2018-08-04T09:02:19.338Z,33376.00
2018-08-04T09:03:19.326Z,33312.00
2018-08-04T09:04:19.346Z,33536.00
2018-08-04T09:05:19.311Z,36224.00
2018-08-04T09:06:19.298Z,43040.00
2018-08-04T09:07:19.286Z,50848.00
2018-08-04T09:08:19.280Z,62496.00
2018-08-04T09:09:19.269Z,76992.00
2018-08-04T09:10:19.291Z,84224.00
2018-08-04T09:11:19.247Z,85248.00
2018-08-04T09:12:19.246Z,88416.00
2018-08-04T09:13:19.228Z,88704.00
2018-08-04T09:14:19.227Z,85280.00
2018-08-04T09:15:19.209Z,86944.00
2018-08-04T09:16:19.225Z,84416.00
2018-08-04T09:17:19.200Z,83136.00
2018-08-04T09:18:19.185Z,91040.00
2018-08-04T09:19:19.181Z,90496.00
2018-08-04T09:20:19.167Z,89632.00
2018-08-04T09:21:19.192Z,87264.00
2018-08-04T09:22:19.149Z,88288.00
2018-08-04T09:23:19.140Z,91616.00
2018-08-04T09:24:19.136Z,89664.00
2018-08-04T09:25:19.122Z,87488.00
2018-08-04T09:26:19.116Z,90112.00
2018-08-04T09:27:19.129Z,89856.00
2018-08-04T09:28:19.092Z,89312.00
2018-08-04T09:29:19.092Z,86560.00
2018-08-04T09:30:19.082Z,88992.00
2018-08-04T09:31:19.070Z,90592.00
2018-08-04T09:32:19.100Z,91360.00
2018-08-04T09:33:19.051Z,94560.00
2018-08-04T09:34:19.042Z,97408.00
2018-08-04T09:35:19.037Z,95040.00
2018-08-04T09:36:19.026Z,96032.00
2018-08-04T09:37:19.025Z,96800.00
2018-08-04T09:38:19.036Z,92896.00
2018-08-04T09:39:19.007Z,97664.00
2018-08-04T09:40:18.996Z,92864.00
2018-08-04T09:41:18.973Z,95424.00
2018-08-04T09:42:18.977Z,99360.00
2018-08-04T09:43:18.960Z,101664.00
2018-08-04T09:44:18.995Z,97216.00
2018-08-04T09:45:18.948Z,101088.00
2018-08-04T09:46:18.942Z,102880.00
2018-08-04T09:47:18.928Z,97504.00
2018-08-04T09:48:18.918Z,95744.00
2018-08-04T09:49:18.919Z,95648.00
2018-08-04T09:50:18.932Z,98208.00
2018-08-04T09:51:18.907Z,92160.00
2018-08-04T09:52:18.894Z,96256.00
2018-08-04T09:53:18.878Z,98080.00
2018-08-04T09:54:18.881Z,97056.00
2018-08-04T09:55:18.901Z,95712.00
2018-08-04T09:56:18.861Z,95392.00
2018-08-04T09:57:18.856Z,95648.00
2018-08-04T09:58:18.844Z,94816.00
2018-08-04T09:59:18.833Z,94080.00
2018-08-04T10:00:18.825Z,96384.00
2018-08-04T10:01:18.853Z,95584.00
2018-08-04T10:02:18.807Z,97312.00
2018-08-04T10:03:18.807Z,94880.00
2018-08-04T10:04:18.791Z,98112.00
2018-08-04T10:05:18.877Z,104288.00
2018-08-04T10:06:18.781Z,100928.00
2018-08-04T10:07:18.791Z,96800.00
2018-08-04T10:08:18.760Z,100960.00
2018-08-04T10:09:18.759Z,99616.00
2018-08-04T10:10:18.747Z,98880.00
2018-08-04T10:11:18.789Z,95712.00
2018-08-04T10:12:18.774Z,91008.00
2018-08-04T10:13:18.734Z,88768.00
2018-08-04T10:14:18.719Z,87776.00
2018-08-04T10:15:18.712Z,87104.00
2018-08-04T10:16:18.706Z,83072.00
2018-08-04T10:17:18.701Z,77408.00
2018-08-04T10:18:18.727Z,75520.00
2018-08-04T10:19:18.683Z,69408.00
2018-08-04T10:20:18.763Z,61376.00
2018-08-04T10:21:18.667Z,56256.00
2018-08-04T10:22:18.662Z,56640.00
2018-08-04T10:23:18.656Z,57664.00
2018-08-04T10:24:18.672Z,60992.00
2018-08-04T10:25:18.639Z,68128.00
2018-08-04T10:26:18.629Z,76320.00
2018-08-04T10:27:18.620Z,85120.00
2018-08-04T10:28:18.615Z,91040.00
2018-08-04T10:29:18.638Z,98944.00
2018-08-04T10:30:18.598Z,103104.00
2018-08-04T10:31:18.585Z,101504.00
2018-08-04T10:32:18.652Z,98016.00
2018-08-04T10:33:18.568Z,102144.00
2018-08-04T10:34:18.549Z,102016.00
2018-08-04T10:35:18.580Z,95584.00
2018-08-04T10:36:18.540Z,99456.00
2018-08-04T10:37:18.528Z,101440.00
2018-08-04T10:38:18.522Z,101792.00
2018-08-04T10:39:18.506Z,99296.00
2018-08-04T10:40:18.498Z,95808.00
2018-08-04T10:41:18.530Z,95008.00
2018-08-04T10:42:18.485Z,90336.00
2018-08-04T10:43:18.480Z,97760.00
2018-08-04T10:44:18.472Z,102336.00
2018-08-04T10:45:18.454Z,95680.00
2018-08-04T10:46:18.455Z,97568.00
2018-08-04T10:47:18.468Z,97376.00
2018-08-04T10:48:18.430Z,96864.00
2018-08-04T10:49:18.424Z,94656.00
2018-08-04T10:50:18.413Z,97696.00
2018-08-04T10:51:18.407Z,94464.00
2018-08-04T10:52:18.400Z,93952.00
2018-08-04T10:53:18.411Z,96928.00
2018-08-04T10:54:18.382Z,93600.00
2018-08-04T10:55:18.367Z,84896.00
2018-08-04T10:56:18.362Z,80384.00
2018-08-04T10:57:18.354Z,76768.00
2018-08-04T10:58:18.376Z,66016.00
2018-08-04T10:59:18.334Z,61280.00
2018-08-04T11:00:18.340Z,64512.00
2018-08-04T11:01:18.313Z,66848.00
2018-08-04T11:02:18.305Z,77632.00
2018-08-04T11:03:18.300Z,82112.00
2018-08-04T11:04:18.323Z,83136.00
2018-08-04T11:05:18.277Z,90688.00
2018-08-04T11:06:18.274Z,90848.00
2018-08-04T11:07:18.267Z,92416.00
2018-08-04T11:08:18.253Z,99712.00
2018-08-04T11:09:18.287Z,96160.00
2018-08-04T11:10:18.241Z,94240.00
2018-08-04T11:11:18.230Z,97984.00
2018-08-04T11:12:18.225Z,95936.00
2018-08-04T11:13:18.216Z,93792.00
2018-08-04T11:14:18.204Z,89568.00
2018-08-04T11:15:18.239Z,89472.00
2018-08-04T11:16:18.190Z,89152.00
2018-08-04T11:17:18.187Z,90208.00
2018-08-04T11:18:18.173Z,88832.00
2018-08-04T11:19:18.169Z,90656.00
2018-08-04T11:20:18.150Z,91296.00
2018-08-04T11:21:18.181Z,90624.00
2018-08-04T11:22:18.134Z,95552.00
2018-08-04T11:23:18.133Z,91680.00
2018-08-04T11:24:18.146Z,93824.00
2018-08-04T11:25:18.107Z,94176.00
2018-08-04T11:26:18.108Z,92512.00
2018-08-04T11:27:18.126Z,97888.00
2018-08-04T11:28:18.084Z,96256.00
2018-08-04T11:29:18.087Z,94016.00
2018-08-04T11:30:18.068Z,89088.00
2018-08-04T11:31:18.063Z,89152.00
2018-08-04T11:32:18.062Z,90080.00
2018-08-04T11:33:18.077Z,87616.00
2018-08-04T11:34:18.039Z,87840.00
2018-08-04T11:35:18.034Z,89600.00
2018-08-04T11:36:18.024Z,89152.00
2018-08-04T11:37:18.021Z,90880.00
2018-08-04T11:38:18.042Z,97152.00
2018-08-04T11:39:18.002Z,92416.00
2018-08-04T11:40:17.994Z,94816.00
2018-08-04T11:41:17.985Z,96480.00
2018-08-04T11:42:17.977Z,93312.00
2018-08-04T11:43:17.968Z,96832.00
2018-08-04T11:44:17.993Z,97952.00
2018-08-04T11:45:17.956Z,98528.00
2018-08-04T11:46:17.954Z,99328.00
2018-08-04T11:47:17.945Z,96864.00
2018-08-04T11:48:17.929Z,94784.00
2018-08-04T11:49:17.922Z,97152.00
2018-08-04T11:50:17.941Z,93856.00
2018-08-04T11:51:17.899Z,96480.00
2018-08-04T11:52:17.890Z,98112.00
2018-08-04T11:53:17.889Z,98720.00
2018-08-04T11:54:17.876Z,96864.00
2018-08-04T11:55:17.867Z,91712.00
2018-08-04T11:56:17.896Z,89248.00
2018-08-04T11:57:17.846Z,91872.00
2018-08-04T11:58:17.890Z,90848.00
2018-08-04T11:59:17.834Z,87008.00
2018-08-04T12:00:17.823Z,82464.00
2018-08-04T12:01:17.817Z,88704.00
2018-08-04T12:02:17.836Z,80608.00
2018-08-04T12:03:17.797Z,90240.00
2018-08-04T12:04:17.792Z,90656.00
2018-08-04T12:05:17.784Z,86432.00
2018-08-04T12:06:17.768Z,88544.00
2018-08-04T12:07:17.759Z,93888.00
2018-08-04T12:08:17.795Z,97952.00
2018-08-04T12:09:17.743Z,89344.00
2018-08-04T12:10:17.742Z,87872.00
2018-08-04T12:11:17.733Z,92800.00
2018-08-04T12:12:17.717Z,93952.00
2018-08-04T12:13:17.721Z,91872.00
2018-08-04T12:14:17.731Z,90464.00
2018-08-04T12:15:17.697Z,78784.00